Time;durP1;ratioP1;P1;durP2;ratioP2;P2;SDS_P1;SDS_P2;PMS_P1;PMS_P2;Temp;Humidity;BMP_temperature;BMP_pressure;BME280_temperature;BME280_humidity;BME280_pressure;Samples;Min_cycle;Max_cycle;Signal;HPM_P1;HPM_P2
2021/11/02 00:02:07;;;;;;;6.47;1.30;;;13.90;99.90;;;;;;5070203;28;20052;-68
2021/11/02 00:05:13;;;;;;;4.50;1.10;;;13.90;99.90;;;;;;5070373;28;20051;-68
2021/11/02 00:08:17;;;;;;;8.70;1.20;;;13.90;99.90;;;;;;5069719;28;20067;-68
2021/11/02 00:11:21;;;;;;;8.35;1.10;;;13.90;99.90;;;;;;5070289;28;20399;-68
2021/11/02 00:14:27;;;;;;;9.27;1.27;;;13.90;99.90;;;;;;5069822;28;20115;-68
2021/11/02 00:17:35;;;;;;;8.05;0.95;;;13.90;99.90;;;;;;5070101;28;20043;-68
2021/11/02 00:20:40;;;;;;;7.85;1.08;;;14.00;99.90;;;;;;5070118;28;20044;-68
2021/11/02 00:23:46;;;;;;;7.55;1.27;;;14.00;99.90;;;;;;5069841;28;20059;-68
2021/11/02 00:26:50;;;;;;;11.25;0.90;;;14.00;99.90;;;;;;5070428;28;20395;-68
2021/11/02 00:29:54;;;;;;;5.00;1.17;;;14.00;99.90;;;;;;5072986;28;20040;-68
2021/11/02 00:32:59;;;;;;;6.25;1.25;;;14.00;99.90;;;;;;5073706;28;20426;-68
2021/11/02 00:36:04;;;;;;;7.22;1.45;;;14.00;99.90;;;;;;5074318;28;20344;-68
2021/11/02 00:39:08;;;;;;;8.48;1.30;;;14.00;99.90;;;;;;5073734;28;20047;-68
2021/11/02 00:42:12;;;;;;;5.07;1.10;;;14.00;99.90;;;;;;5073121;28;20387;-68
2021/11/02 00:45:27;;;;;;;9.02;1.00;;;14.00;99.90;;;;;;5072882;28;20039;-68
2021/11/02 00:48:31;;;;;;;5.60;1.25;;;14.00;99.90;;;;;;5073068;28;20036;-68
2021/11/02 00:51:35;;;;;;;4.75;1.00;;;13.90;99.90;;;;;;5073554;28;20048;-68
2021/11/02 00:54:39;;;;;;;8.68;1.10;;;13.90;99.90;;;;;;5060825;28;20048;-68
2021/11/02 00:57:44;;;;;;;6.05;1.00;;;13.90;99.90;;;;;;5073098;28;20047;-68
2021/11/02 01:00:49;;;;;;;5.95;1.10;;;14.00;99.90;;;;;;5072314;28;20047;-68
2021/11/02 01:03:53;;;;;;;6.90;1.08;;;14.00;99.90;;;;;;5073235;28;20074;-68
2021/11/02 01:06:57;;;;;;;6.72;1.30;;;14.00;99.90;;;;;;5072866;28;20055;-68
2021/11/02 01:10:03;;;;;;;9.85;1.67;;;14.00;99.90;;;;;;5072653;28;20047;-68
2021/11/02 01:13:07;;;;;;;4.15;1.00;;;14.00;99.90;;;;;;5073982;28;20039;-68
2021/11/02 01:16:11;;;;;;;8.85;1.15;;;14.10;99.90;;;;;;5073081;28;20039;-68
2021/11/02 01:19:15;;;;;;;9.82;1.20;;;14.10;99.90;;;;;;5072271;28;20048;-68
2021/11/02 01:22:20;;;;;;;4.88;1.15;;;14.10;99.90;;;;;;5073408;28;20036;-69
2021/11/02 01:25:25;;;;;;;4.55;1.10;;;14.10;99.90;;;;;;5072167;28;20379;-68
2021/11/02 01:28:29;;;;;;;5.75;1.23;;;14.20;99.90;;;;;;5072103;28;20485;-68
2021/11/02 01:31:33;;;;;;;7.05;1.33;;;14.30;99.90;;;;;;5073182;28;20040;-68
2021/11/02 01:34:38;;;;;;;8.73;1.83;;;14.30;99.90;;;;;;5071929;28;20398;-68
2021/11/02 01:37:42;;;;;;;8.18;1.17;;;14.30;99.90;;;;;;5072337;28;20047;-68
2021/11/02 01:40:47;;;;;;;7.43;1.13;;;14.30;99.90;;;;;;5071121;28;20039;-68
2021/11/02 01:43:53;;;;;;;7.63;1.30;;;14.30;99.90;;;;;;5072090;28;20040;-68
2021/11/02 01:47:00;;;;;;;14.60;1.42;;;14.30;99.90;;;;;;5071936;28;20403;-68
2021/11/02 01:50:09;;;;;;;7.25;1.25;;;14.40;99.90;;;;;;5071825;28;20040;-68
2021/11/02 01:53:15;;;;;;;6.85;1.25;;;14.20;99.90;;;;;;5072014;28;20403;-68
2021/11/02 01:56:21;;;;;;;9.07;2.67;;;14.20;99.90;;;;;;5072416;28;20395;-68
2021/11/02 01:59:29;;;;;;;7.00;1.08;;;14.20;99.90;;;;;;5071099;28;20126;-68
2021/11/02 02:03:14;;;;;;;7.28;1.45;;;14.30;99.90;;;;;;5071443;28;20387;-68
2021/11/02 02:07:07;;;;;;;5.15;2.20;;;14.20;99.90;;;;;;5071463;28;20047;-68
2021/11/02 02:10:47;;;;;;;7.72;1.63;;;14.10;99.90;;;;;;5068838;28;20048;-68
2021/11/02 02:14:41;;;;;;;9.20;2.50;;;14.00;99.90;;;;;;5069646;28;20051;-68
2021/11/02 02:18:16;;;;;;;22.08;2.70;;;14.00;99.90;;;;;;5071648;28;20047;-68
2021/11/02 02:21:44;;;;;;;11.63;1.65;;;14.00;99.90;;;;;;5070743;28;20505;-68
2021/11/02 02:25:10;;;;;;;8.85;1.00;;;14.00;99.90;;;;;;5071971;28;20055;-67
2021/11/02 02:28:26;;;;;;;9.02;1.23;;;13.90;99.90;;;;;;5070619;28;20032;-67
2021/11/02 02:31:34;;;;;;;10.30;1.67;;;13.90;99.90;;;;;;5070656;28;20048;-68
2021/11/02 02:34:41;;;;;;;13.35;2.00;;;14.00;99.90;;;;;;5070408;28;20040;-67
2021/11/02 02:37:48;;;;;;;13.75;1.73;;;13.90;99.90;;;;;;5070681;28;20391;-68
2021/11/02 02:40:53;;;;;;;7.75;1.83;;;13.80;99.90;;;;;;5071158;28;20490;-67
2021/11/02 02:44:01;;;;;;;9.32;1.50;;;13.70;99.90;;;;;;5070286;28;20059;-68
2021/11/02 02:47:06;;;;;;;6.60;1.30;;;13.70;99.90;;;;;;5071519;28;20047;-68
2021/11/02 02:50:12;;;;;;;7.97;1.60;;;13.60;99.90;;;;;;5070165;28;20822;-68
2021/11/02 02:53:17;;;;;;;8.38;1.30;;;13.60;99.90;;;;;;5070414;28;20047;-67
2021/11/02 02:56:23;;;;;;;17.33;3.28;;;13.50;99.90;;;;;;5070579;28;20482;-68
2021/11/02 02:59:29;;;;;;;10.18;1.52;;;13.50;99.90;;;;;;5069736;28;20255;-67
2021/11/02 03:02:35;;;;;;;11.85;1.90;;;13.50;99.90;;;;;;5070077;28;20043;-67
2021/11/02 03:05:42;;;;;;;11.00;1.60;;;13.50;99.90;;;;;;5070208;28;20051;-67
2021/11/02 03:08:47;;;;;;;10.63;1.52;;;13.50;99.90;;;;;;5069972;28;20040;-67
2021/11/02 03:11:53;;;;;;;9.48;1.55;;;13.60;99.90;;;;;;5069863;28;20043;-67
2021/11/02 03:15:21;;;;;;;12.68;1.38;;;13.60;99.90;;;;;;5069904;28;20060;-67
2021/11/02 04:23:35;;;;;;;18.58;3.10;;;13.10;99.90;;;;;;5069619;28;20056;-66
2021/11/02 05:08:26;;;;;;;18.70;2.92;;;13.00;99.90;;;;;;5069492;28;20051;-67
2021/11/02 05:49:29;;;;;;;19.77;3.63;;;12.80;99.90;;;;;;5071796;28;20467;-67
2021/11/02 05:59:24;;;;;;;21.00;2.78;;;12.80;99.90;;;;;;5070279;28;19919;-67
2021/11/02 06:30:15;;;;;;;25.13;2.78;;;13.10;99.90;;;;;;5072446;28;20035;-72
2021/11/02 07:11:04;;;;;;;19.23;2.85;;;14.10;99.90;;;;;;5050635;28;20052;-72
2021/11/02 07:24:15;;;;;;;21.13;3.38;;;14.00;99.90;;;;;;5065442;28;20399;-72
2021/11/02 08:47:07;;;;;;;27.15;3.38;;;16.60;99.90;;;;;;5066216;28;20395;-70
2021/11/02 08:50:13;;;;;;;16.85;3.60;;;16.10;99.90;;;;;;5067082;28;20051;-70
2021/11/02 08:53:19;;;;;;;29.95;4.63;;;16.20;99.90;;;;;;5063293;28;20056;-70
2021/11/02 08:56:24;;;;;;;26.08;3.10;;;16.40;99.90;;;;;;5070008;28;20051;-71
2021/11/02 08:59:33;;;;;;;18.88;3.75;;;16.50;99.90;;;;;;5067460;28;20039;-71
2021/11/02 09:02:43;;;;;;;19.65;3.13;;;16.70;99.90;;;;;;5071291;28;20044;-70
2021/11/02 09:05:53;;;;;;;25.15;4.03;;;16.60;99.90;;;;;;5064955;28;20390;-71
2021/11/02 09:09:00;;;;;;;19.27;3.35;;;16.70;99.90;;;;;;5068800;28;20059;-70
2021/11/02 09:12:05;;;;;;;23.50;3.47;;;17.20;99.90;;;;;;5072012;28;20051;-71
2021/11/02 09:15:13;;;;;;;17.05;2.80;;;17.00;99.90;;;;;;5070902;28;20051;-71
2021/11/02 09:18:20;;;;;;;24.65;7.05;;;17.40;99.90;;;;;;5064993;28;20044;-71
2021/11/02 09:21:24;;;;;;;27.20;7.22;;;17.80;99.90;;;;;;5069459;28;20386;-71
2021/11/02 09:24:29;;;;;;;26.55;7.07;;;17.80;99.90;;;;;;5070347;28;20032;-72
2021/11/02 09:27:36;;;;;;;21.20;4.30;;;17.20;99.90;;;;;;5067963;28;20043;-72
2021/11/02 09:30:41;;;;;;;15.68;3.40;;;17.80;99.90;;;;;;5067671;28;20079;-71
2021/11/02 09:33:45;;;;;;;32.83;5.45;;;19.10;99.90;;;;;;5068908;28;20044;-74
2021/11/02 09:37:07;;;;;;;21.60;3.20;;;19.70;99.90;;;;;;5061314;28;20403;-68
2021/11/02 09:40:26;;;;;;;20.02;3.63;;;19.00;99.90;;;;;;5071415;28;20043;-66
2021/11/02 09:43:32;;;;;;;21.35;3.92;;;18.00;99.90;;;;;;5069198;28;20403;-68
2021/11/02 09:47:23;;;;;;;25.80;4.32;;;17.70;99.90;;;;;;5069465;28;20052;-66
2021/11/02 09:50:50;;;;;;;20.70;2.90;;;16.30;99.90;;;;;;5070526;28;20047;-66
2021/11/02 09:54:03;;;;;;;19.55;3.45;;;16.70;99.90;;;;;;5063577;28;20036;-67
2021/11/02 09:57:13;;;;;;;13.52;3.20;;;18.30;99.90;;;;;;5064284;28;20044;-69
2021/11/02 10:00:45;;;;;;;16.38;3.33;;;20.30;99.90;;;;;;5071459;28;20035;-69
2021/11/02 10:03:59;;;;;;;18.25;3.45;;;18.80;99.90;;;;;;5071599;28;20387;-68
2021/11/02 10:07:24;;;;;;;14.93;3.03;;;17.20;99.90;;;;;;5072828;28;20047;-66
2021/11/02 10:10:56;;;;;;;13.30;2.40;;;16.40;99.90;;;;;;5069078;28;20048;-66
2021/11/02 10:14:15;;;;;;;20.08;2.95;;;16.50;99.90;;;;;;5061110;28;20039;-66
2021/11/02 10:17:44;;;;;;;18.90;5.00;;;16.10;99.90;;;;;;5065873;28;20043;-65
2021/11/02 10:21:04;;;;;;;17.90;2.33;;;16.10;99.90;;;;;;5064869;28;20046;-66
2021/11/02 10:24:41;;;;;;;22.55;3.30;;;15.80;99.90;;;;;;5051786;28;20052;-66
2021/11/02 10:28:06;;;;;;;21.95;4.47;;;15.60;99.90;;;;;;5069290;28;20048;-67
2021/11/02 10:31:29;;;;;;;23.95;2.85;;;15.40;99.90;;;;;;5064031;28;20336;-67
2021/11/02 10:34:41;;;;;;;19.55;3.40;;;15.40;99.90;;;;;;5064047;28;20506;-67
2021/11/02 10:38:11;;;;;;;13.02;2.28;;;15.40;99.90;;;;;;5054010;28;20487;-67
2021/11/02 10:41:21;;;;;;;24.30;3.55;;;15.70;99.90;;;;;;5064900;28;20039;-66
2021/11/02 10:44:38;;;;;;;21.65;4.72;;;15.70;99.90;;;;;;5070217;28;20051;-67
2021/11/02 10:48:03;;;;;;;19.27;3.55;;;16.00;99.90;;;;;;5070682;28;20035;-67
2021/11/02 10:51:35;;;;;;;31.50;4.25;;;16.10;99.90;;;;;;5050934;28;20044;-66
2021/11/02 10:55:24;;;;;;;15.40;2.72;;;16.00;99.90;;;;;;5066584;28;20063;-68
2021/11/02 10:59:06;;;;;;;16.98;2.75;;;16.00;99.90;;;;;;5060621;28;20047;-68
2021/11/02 11:02:27;;;;;;;22.42;3.42;;;16.10;99.90;;;;;;5048584;28;20052;-66
2021/11/02 11:05:33;;;;;;;15.18;3.35;;;15.60;99.90;;;;;;5069194;28;20514;-67
2021/11/02 11:08:40;;;;;;;21.10;3.45;;;15.80;99.90;;;;;;5069626;28;20056;-67
2021/11/02 11:11:46;;;;;;;20.30;3.45;;;16.10;99.90;;;;;;5064518;28;20391;-67
2021/11/02 11:14:54;;;;;;;23.88;4.88;;;16.50;99.90;;;;;;5070098;28;20043;-67
2021/11/02 11:18:10;;;;;;;18.35;4.00;;;16.30;99.90;;;;;;5057171;28;20056;-66
2021/11/02 11:21:15;;;;;;;22.50;3.38;;;16.00;99.90;;;;;;5067534;28;20048;-67
2021/11/02 11:24:34;;;;;;;18.35;3.58;;;16.10;99.90;;;;;;5071159;28;20525;-66
2021/11/02 11:27:55;;;;;;;22.95;4.05;;;16.10;99.90;;;;;;5069724;28;20051;-66
2021/11/02 11:31:01;;;;;;;23.08;5.13;;;16.40;99.90;;;;;;5067597;28;20044;-70
2021/11/02 11:34:07;;;;;;;30.05;4.45;;;16.30;99.90;;;;;;5065592;28;20102;-66
2021/11/02 11:37:13;;;;;;;25.23;4.95;;;16.20;99.90;;;;;;5057647;28;20198;-66
2021/11/02 11:40:23;;;;;;;26.65;3.53;;;16.20;99.90;;;;;;5060783;28;20071;-65
2021/11/02 11:43:30;;;;;;;18.63;2.92;;;16.60;99.90;;;;;;5070085;28;20059;-66
2021/11/02 11:46:34;;;;;;;25.58;4.95;;;17.00;99.90;;;;;;5062909;28;20120;-68
2021/11/02 11:49:44;;;;;;;19.67;3.15;;;17.00;99.90;;;;;;5068841;28;20051;-68
2021/11/02 11:52:54;;;;;;;24.70;4.07;;;16.90;99.90;;;;;;5058676;28;20059;-66
2021/11/02 11:56:09;;;;;;;25.20;5.28;;;16.70;99.90;;;;;;5057399;28;20051;-66
2021/11/02 11:59:18;;;;;;;17.17;3.20;;;16.80;99.90;;;;;;5068106;28;20043;-66
2021/11/02 12:02:41;;;;;;;13.95;2.70;;;17.30;99.90;;;;;;5059602;28;20054;-66
2021/11/02 12:05:45;;;;;;;;;;;17.20;99.90;;;;;;5060997;28;20044;-66
2021/11/02 12:08:56;;;;;;;18.23;3.03;;;17.60;99.90;;;;;;5060628;28;19924;-69
2021/11/02 12:12:02;;;;;;;14.60;2.77;;;18.80;99.90;;;;;;5064588;28;20047;-68
2021/11/02 12:15:17;;;;;;;22.77;2.70;;;19.60;99.90;;;;;;5065137;28;20032;-66
2021/11/02 12:18:27;;;;;;;15.50;2.75;;;20.60;99.90;;;;;;5050665;28;20395;-67
2021/11/02 12:21:33;;;;;;;17.50;3.08;;;22.20;99.90;;;;;;5059603;28;20028;-69
2021/11/02 12:24:39;;;;;;;13.30;2.78;;;19.60;99.90;;;;;;5056533;28;20047;-69
2021/11/02 12:27:44;;;;;;;14.65;3.00;;;19.30;99.90;;;;;;5063306;28;20052;-68
2021/11/02 12:30:48;;;;;;;12.98;3.17;;;18.20;99.90;;;;;;5061981;28;20043;-68
2021/11/02 12:33:53;;;;;;;12.52;2.80;;;18.10;99.90;;;;;;5064412;28;20044;-68
2021/11/02 12:36:59;;;;;;;27.20;3.65;;;18.40;99.90;;;;;;5054656;28;20493;-69
2021/11/02 12:40:40;;;;;;;23.40;3.40;;;17.90;99.90;;;;;;5064261;28;20047;-72
2021/11/02 12:43:44;;;;;;;16.23;3.20;;;17.40;99.90;;;;;;5058186;28;20048;-72
2021/11/02 12:46:49;;;;;;;12.35;2.72;;;18.30;99.90;;;;;;5059588;28;20817;-72
2021/11/02 12:49:59;;;;;;;11.50;2.58;;;18.50;99.90;;;;;;5063198;28;20044;-72
2021/11/02 12:53:04;;;;;;;18.20;3.22;;;21.30;99.90;;;;;;5061474;28;20056;-71
2021/11/02 12:56:20;;;;;;;12.45;2.70;;;22.20;99.90;;;;;;5061954;28;20495;-72
2021/11/02 12:59:32;;;;;;;12.60;2.55;;;22.20;99.90;;;;;;5061721;28;20036;-71
2021/11/02 13:02:42;;;;;;;9.90;1.90;;;19.50;99.60;;;;;;5063045;28;20107;-72
2021/11/02 13:06:06;;;;;;;9.65;2.10;;;20.40;99.90;;;;;;5069806;28;20412;-71
2021/11/02 13:09:24;;;;;;;9.10;1.80;;;22.10;98.30;;;;;;5071710;28;20048;-74
2021/11/02 13:12:29;;;;;;;12.15;2.03;;;21.50;97.60;;;;;;5060367;28;20047;-70
2021/11/02 13:15:54;;;;;;;12.52;2.30;;;19.10;99.10;;;;;;5058725;28;20078;-72
2021/11/02 13:19:12;;;;;;;8.93;1.63;;;18.00;99.90;;;;;;5060215;28;20039;-73
2021/11/02 13:22:20;;;;;;;11.38;3.33;;;18.10;99.90;;;;;;5061343;28;20036;-72
2021/11/02 13:25:34;;;;;;;10.45;2.22;;;17.80;99.90;;;;;;5070044;28;20067;-71
2021/11/02 13:28:39;;;;;;;12.25;2.17;;;16.80;99.90;;;;;;5063974;28;20119;-72
2021/11/02 13:31:45;;;;;;;12.27;2.13;;;16.50;99.90;;;;;;5065127;28;20044;-71
2021/11/02 13:34:49;;;;;;;12.48;2.40;;;16.30;99.90;;;;;;5066897;28;20043;-72
2021/11/02 13:37:52;;;;;;;20.52;3.17;;;16.50;99.90;;;;;;5059724;28;20055;-72
2021/11/02 13:41:20;;;;;;;15.98;2.97;;;16.70;99.90;;;;;;5067643;28;20329;-72
2021/11/02 13:44:25;;;;;;;10.68;2.15;;;16.50;99.90;;;;;;5070860;28;20044;-73
2021/11/02 13:47:31;;;;;;;14.27;2.03;;;16.10;99.90;;;;;;5072136;28;20044;-72
2021/11/02 13:50:36;;;;;;;11.57;2.03;;;16.00;99.90;;;;;;5070709;28;20040;-73
2021/11/02 13:53:41;;;;;;;14.18;2.05;;;17.00;99.90;;;;;;5060527;28;20394;-71
2021/11/02 13:56:48;;;;;;;14.70;2.55;;;17.20;99.90;;;;;;5071087;28;20044;-72
2021/11/02 13:59:53;;;;;;;10.63;2.65;;;17.80;99.90;;;;;;5059234;28;20043;-72
2021/11/02 14:03:07;;;;;;;12.90;2.13;;;19.00;99.90;;;;;;5060475;28;20048;-72
2021/11/02 14:06:15;;;;;;;10.32;2.33;;;20.50;99.90;;;;;;5060077;28;20398;-72
2021/11/02 14:09:28;;;;;;;6.85;1.65;;;19.60;99.90;;;;;;5062609;28;20375;-72
2021/11/02 14:12:40;;;;;;;17.48;3.97;;;19.50;99.90;;;;;;5068492;28;20044;-72
2021/11/02 14:15:45;;;;;;;15.52;4.30;;;19.80;99.90;;;;;;5064010;28;20060;-71
2021/11/02 14:18:49;;;;;;;11.38;3.67;;;19.90;99.90;;;;;;5059634;28;20039;-72
2021/11/02 14:21:52;;;;;;;15.35;3.38;;;19.40;99.90;;;;;;5062972;28;20040;-72
2021/11/02 14:25:32;;;;;;;11.57;2.92;;;19.40;99.90;;;;;;5066950;28;20052;-67
2021/11/02 14:28:57;;;;;;;15.23;2.63;;;18.90;99.90;;;;;;5063518;28;20055;-66
2021/11/02 14:32:01;;;;;;;13.07;2.08;;;18.40;99.90;;;;;;5053004;28;20040;-66
2021/11/02 14:35:12;;;;;;;10.10;1.80;;;18.30;99.90;;;;;;5056002;28;20051;-66
2021/11/02 14:38:25;;;;;;;15.25;3.00;;;18.30;99.90;;;;;;5053471;28;20048;-67
2021/11/02 14:41:33;;;;;;;11.23;2.17;;;17.90;99.90;;;;;;5054962;28;20509;-67
2021/11/02 14:44:48;;;;;;;17.25;1.95;;;17.60;99.90;;;;;;5057964;28;20056;-66
2021/11/02 14:47:53;;;;;;;16.88;2.78;;;17.40;99.90;;;;;;5070131;28;20055;-71
2021/11/02 14:51:05;;;;;;;16.17;2.20;;;17.80;99.90;;;;;;5052931;28;20040;-71
2021/11/02 14:54:21;;;;;;;10.20;2.40;;;17.10;99.90;;;;;;5062250;28;20040;-67
2021/11/02 14:57:27;;;;;;;12.55;2.90;;;16.90;99.90;;;;;;5053736;28;20139;-67
2021/11/02 15:00:40;;;;;;;21.20;3.95;;;17.10;99.90;;;;;;5051768;28;20043;-67
2021/11/02 15:03:52;;;;;;;10.93;2.47;;;17.30;99.90;;;;;;5067276;28;20508;-67
2021/11/02 15:07:01;;;;;;;;;;;17.20;99.90;;;;;;5052180;28;20068;-66
2021/11/02 15:10:08;;;;;;;13.65;2.25;;;16.70;99.90;;;;;;5050693;28;20370;-66
2021/11/02 15:13:19;;;;;;;15.05;2.50;;;16.10;99.90;;;;;;5064650;28;20505;-71
2021/11/02 15:16:25;;;;;;;12.68;2.30;;;15.80;99.90;;;;;;5058894;28;20035;-72
2021/11/02 15:19:32;;;;;;;15.48;2.40;;;15.70;99.90;;;;;;5066770;28;20039;-72
2021/11/02 15:22:36;;;;;;;9.60;1.75;;;15.60;99.90;;;;;;5063055;28;20043;-71
2021/11/02 15:25:42;;;;;;;18.73;2.78;;;15.60;99.90;;;;;;5063846;28;20390;-71
2021/11/02 15:28:49;;;;;;;14.00;2.05;;;15.60;99.90;;;;;;5055970;28;20493;-71
2021/11/02 15:32:01;;;;;;;12.25;1.73;;;15.60;99.90;;;;;;5057922;28;20047;-71
2021/11/02 15:35:08;;;;;;;15.55;2.17;;;15.40;99.90;;;;;;5054900;28;20404;-71
2021/11/02 15:38:13;;;;;;;17.75;2.17;;;15.40;99.90;;;;;;5058649;28;20044;-72
2021/11/02 15:41:22;;;;;;;14.75;1.98;;;15.40;99.90;;;;;;5062235;28;20498;-71
2021/11/02 15:44:27;;;;;;;9.25;2.53;;;15.30;99.90;;;;;;5063573;28;20052;-71
2021/11/02 15:47:34;;;;;;;20.67;2.60;;;15.30;99.90;;;;;;5064746;28;20048;-72
2021/11/02 15:50:45;;;;;;;12.90;3.00;;;15.20;99.90;;;;;;5056005;28;20048;-70
2021/11/02 15:53:49;;;;;;;18.92;3.03;;;15.10;99.90;;;;;;5050174;28;20052;-70
2021/11/02 15:56:55;;;;;;;13.40;3.20;;;15.00;99.90;;;;;;5050752;28;20044;-71
2021/11/02 16:00:05;;;;;;;16.58;2.80;;;15.00;99.90;;;;;;5053337;28;20375;-71
2021/11/02 16:03:10;;;;;;;13.52;2.83;;;14.90;99.90;;;;;;5051572;28;20048;-71
2021/11/02 16:06:17;;;;;;;18.33;2.95;;;14.80;99.90;;;;;;5049359;28;20056;-67
2021/11/02 16:09:24;;;;;;;9.95;3.65;;;14.70;99.90;;;;;;5049476;28;20040;-67
2021/11/02 16:12:33;;;;;;;19.77;6.03;;;14.50;99.90;;;;;;5051071;28;20486;-67
2021/11/02 16:15:39;;;;;;;24.85;7.15;;;14.40;99.90;;;;;;5049663;28;20044;-66
2021/11/02 16:18:43;;;;;;;21.38;4.57;;;14.40;99.90;;;;;;5049771;28;20048;-67
2021/11/02 16:21:47;;;;;;;19.38;4.07;;;14.30;99.90;;;;;;5049978;28;20036;-67
2021/11/02 16:25:06;;;;;;;24.20;5.22;;;14.30;99.90;;;;;;5050243;28;20036;-67
2021/11/02 16:28:21;;;;;;;22.08;3.67;;;14.30;99.90;;;;;;5049884;28;20044;-67
2021/11/02 16:31:27;;;;;;;17.25;2.15;;;14.40;99.90;;;;;;5050536;28;20100;-71
2021/11/02 16:34:31;;;;;;;12.38;2.50;;;14.40;99.90;;;;;;5050214;28;20044;-71
2021/11/02 16:37:38;;;;;;;10.75;2.28;;;14.40;99.90;;;;;;5049648;28;20044;-71
2021/11/02 16:40:50;;;;;;;13.13;3.63;;;14.40;99.90;;;;;;5050193;28;20060;-71
2021/11/02 16:44:09;;;;;;;13.82;1.88;;;14.40;99.90;;;;;;5050089;28;20064;-71
2021/11/02 16:47:15;;;;;;;11.93;2.28;;;14.40;99.90;;;;;;5051131;28;20070;-70
2021/11/02 16:50:26;;;;;;;12.40;2.33;;;14.30;99.90;;;;;;5050467;28;20064;-70
2021/11/02 16:53:31;;;;;;;17.13;2.47;;;14.20;99.90;;;;;;5049095;28;20040;-71
2021/11/02 16:56:36;;;;;;;13.20;2.33;;;14.20;99.90;;;;;;5049515;28;20206;-71
2021/11/02 16:59:40;;;;;;;18.55;2.80;;;14.10;99.90;;;;;;5049271;28;20048;-70
2021/11/02 17:02:48;;;;;;;9.23;1.88;;;14.20;99.90;;;;;;5049365;28;20044;-71
2021/11/02 17:05:52;;;;;;;15.93;2.85;;;14.20;99.90;;;;;;5050286;28;20047;-70
2021/11/02 17:09:02;;;;;;;12.95;1.92;;;14.30;99.90;;;;;;5049156;28;20055;-70
2021/11/02 17:12:09;;;;;;;14.80;2.92;;;14.40;99.90;;;;;;5053399;28;20048;-71
2021/11/02 17:15:20;;;;;;;15.57;2.13;;;14.40;99.90;;;;;;5053000;28;20075;-67
2021/11/02 17:18:41;;;;;;;10.90;2.08;;;14.40;99.90;;;;;;5052392;28;20039;-67
2021/11/02 17:21:49;;;;;;;11.52;2.35;;;14.40;99.90;;;;;;5053259;28;20048;-67
2021/11/02 17:24:54;;;;;;;14.95;2.70;;;14.30;99.90;;;;;;5052981;28;20044;-67
2021/11/02 17:27:59;;;;;;;20.60;3.22;;;14.40;99.90;;;;;;5056495;28;20035;-67
2021/11/02 17:31:07;;;;;;;17.95;3.05;;;14.50;99.90;;;;;;5052785;28;20052;-67
2021/11/02 17:34:22;;;;;;;9.23;2.17;;;14.50;99.90;;;;;;5052531;28;20040;-67
2021/11/02 17:37:27;;;;;;;9.65;2.20;;;14.30;99.90;;;;;;5052879;28;20052;-65
2021/11/02 17:40:32;;;;;;;12.27;2.45;;;14.20;99.90;;;;;;5052747;28;20048;-66
2021/11/02 17:43:42;;;;;;;15.07;2.08;;;14.10;99.90;;;;;;5051780;28;20051;-66
2021/11/02 17:46:46;;;;;;;13.25;3.60;;;14.10;99.90;;;;;;5052797;28;20044;-65
2021/11/02 17:49:51;;;;;;;8.57;1.90;;;14.20;99.90;;;;;;5052850;28;20415;-66
2021/11/02 17:52:56;;;;;;;8.55;2.42;;;14.20;99.90;;;;;;5053596;28;20043;-65
2021/11/02 17:56:03;;;;;;;15.30;2.33;;;14.20;99.90;;;;;;5052258;28;20044;-66
2021/11/02 17:59:08;;;;;;;10.25;2.50;;;14.10;99.90;;;;;;5052805;28;20044;-65
2021/11/02 18:02:13;;;;;;;11.13;2.20;;;14.00;99.90;;;;;;5052836;28;20403;-65
2021/11/02 18:05:17;;;;;;;22.15;2.83;;;14.10;99.90;;;;;;5051899;28;20155;-66
2021/11/02 18:08:22;;;;;;;15.73;2.45;;;14.10;99.90;;;;;;5052146;28;20486;-65
2021/11/02 18:11:27;;;;;;;14.60;2.53;;;14.10;99.90;;;;;;5052079;28;20055;-65
2021/11/02 18:14:32;;;;;;;18.52;2.90;;;14.10;99.90;;;;;;5052213;28;20052;-65
2021/11/02 18:17:49;;;;;;;13.20;2.33;;;14.00;99.90;;;;;;5052170;28;20056;-65
2021/11/02 18:20:55;;;;;;;15.30;2.63;;;14.10;99.90;;;;;;5051358;28;20044;-65
2021/11/02 18:24:03;;;;;;;10.23;3.00;;;14.20;99.90;;;;;;5051862;28;20048;-65
2021/11/02 18:27:07;;;;;;;11.38;2.22;;;14.30;99.90;;;;;;5051933;28;20068;-66
2021/11/02 18:30:12;;;;;;;19.67;2.47;;;14.40;99.90;;;;;;5052021;28;20052;-66
2021/11/02 18:33:18;;;;;;;16.50;2.25;;;14.30;99.90;;;;;;5051731;28;20067;-65
2021/11/02 18:36:23;;;;;;;14.85;2.60;;;14.40;99.90;;;;;;5051558;28;20525;-66
2021/11/02 18:39:29;;;;;;;14.40;3.47;;;14.40;99.90;;;;;;5050510;28;20073;-66
2021/11/02 18:42:33;;;;;;;15.38;1.98;;;14.30;99.90;;;;;;5052421;28;20044;-66
2021/11/02 18:45:38;;;;;;;11.85;2.72;;;14.30;99.90;;;;;;5051626;28;20048;-66
2021/11/02 18:48:43;;;;;;;17.38;2.40;;;14.30;99.90;;;;;;5051623;28;20048;-65
2021/11/02 18:51:48;;;;;;;11.50;2.75;;;14.40;99.90;;;;;;5051862;28;20039;-65
2021/11/02 18:54:52;;;;;;;14.73;2.05;;;14.40;99.90;;;;;;5051301;28;20036;-66
2021/11/02 18:57:57;;;;;;;8.10;2.20;;;14.30;99.90;;;;;;5051674;28;20055;-65
2021/11/02 19:01:04;;;;;;;13.77;2.20;;;14.40;99.90;;;;;;5050407;28;20048;-66
2021/11/02 19:04:08;;;;;;;17.90;3.00;;;14.40;99.90;;;;;;5051234;28;20048;-66
2021/11/02 19:07:13;;;;;;;11.32;2.10;;;14.40;99.90;;;;;;5051166;28;20399;-66
2021/11/02 19:10:18;;;;;;;15.70;1.98;;;14.30;99.90;;;;;;5051887;28;20399;-66
2021/11/02 19:13:23;;;;;;;12.20;2.08;;;14.40;99.90;;;;;;5050578;28;20044;-66
2021/11/02 19:16:27;;;;;;;19.00;3.03;;;14.50;99.90;;;;;;5051557;28;20044;-65
2021/11/02 19:19:31;;;;;;;14.45;1.90;;;14.50;99.90;;;;;;5050909;28;20518;-65
2021/11/02 19:22:35;;;;;;;13.10;1.80;;;14.50;99.90;;;;;;5051745;28;20048;-66
2021/11/02 19:25:40;;;;;;;20.58;2.42;;;14.60;99.90;;;;;;5051333;28;20560;-65
2021/11/02 19:28:44;;;;;;;17.00;2.83;;;14.50;99.90;;;;;;5050300;28;20496;-66
2021/11/02 19:31:48;;;;;;;15.85;2.30;;;14.40;99.90;;;;;;5051525;28;20044;-65
2021/11/02 19:34:53;;;;;;;16.50;3.53;;;14.40;99.90;;;;;;5049735;28;20043;-69
2021/11/02 19:37:57;;;;;;;22.27;2.10;;;14.30;99.90;;;;;;5050842;28;20392;-69
2021/11/02 19:41:01;;;;;;;9.15;1.90;;;14.40;99.90;;;;;;5050658;28;20040;-69
2021/11/02 19:44:06;;;;;;;13.75;3.05;;;14.20;99.90;;;;;;5050247;28;20395;-69
2021/11/02 19:47:10;;;;;;;14.02;2.95;;;14.20;99.90;;;;;;5050572;28;20056;-69
2021/11/02 19:50:15;;;;;;;18.50;3.65;;;14.20;99.90;;;;;;5049903;28;20071;-69
2021/11/02 19:53:23;;;;;;;20.67;3.47;;;14.10;99.90;;;;;;5050356;28;20044;-70
2021/11/02 19:56:28;;;;;;;12.45;2.22;;;14.10;99.90;;;;;;5050380;28;20044;-69
2021/11/02 19:59:32;;;;;;;20.77;2.00;;;14.30;99.90;;;;;;5049811;28;20056;-69
2021/11/02 20:02:36;;;;;;;12.25;1.67;;;14.30;99.90;;;;;;5050285;28;20044;-69
2021/11/02 20:05:41;;;;;;;8.88;1.67;;;14.40;99.90;;;;;;5050211;28;20068;-69
2021/11/02 20:08:50;;;;;;;12.48;2.08;;;14.50;99.90;;;;;;5049429;28;20048;-69
2021/11/02 20:12:04;;;;;;;14.98;2.88;;;14.50;99.90;;;;;;5050864;28;20051;-69
2021/11/02 20:15:08;;;;;;;17.08;2.88;;;14.50;99.90;;;;;;5050539;28;20044;-69
2021/11/02 20:18:15;;;;;;;12.38;2.95;;;14.60;99.90;;;;;;5050171;28;20052;-69
2021/11/02 20:21:32;;;;;;;12.73;2.47;;;14.60;99.90;;;;;;5050264;28;20108;-69
2021/11/02 20:24:42;;;;;;;10.82;2.25;;;14.60;99.90;;;;;;5049047;28;20048;-69
2021/11/02 20:27:48;;;;;;;9.68;2.03;;;14.60;99.90;;;;;;5049439;28;20052;-70
2021/11/02 20:30:56;;;;;;;16.90;2.00;;;14.60;99.90;;;;;;5050911;28;20055;-69
2021/11/02 20:34:00;;;;;;;11.68;2.00;;;14.70;99.90;;;;;;5050001;28;20052;-65
2021/11/02 20:37:06;;;;;;;15.45;2.88;;;14.70;99.90;;;;;;5049533;28;20522;-66
2021/11/02 20:40:11;;;;;;;13.23;2.42;;;14.60;99.90;;;;;;5049585;28;20040;-66
2021/11/02 20:43:21;;;;;;;11.25;1.98;;;14.70;99.90;;;;;;5049997;28;20036;-65
2021/11/02 20:46:28;;;;;;;17.02;2.30;;;14.70;99.90;;;;;;5054011;28;20048;-65
2021/11/02 20:49:36;;;;;;;12.73;2.53;;;14.70;99.90;;;;;;5054505;28;20040;-65
2021/11/02 20:52:40;;;;;;;10.15;2.58;;;14.60;99.90;;;;;;5055106;28;20040;-65
2021/11/02 20:55:44;;;;;;;12.55;3.55;;;14.60;99.90;;;;;;5054190;28;20391;-66
2021/11/02 20:58:48;;;;;;;22.98;3.83;;;14.30;99.90;;;;;;5053589;28;20052;-66
2021/11/02 21:01:53;;;;;;;18.13;4.40;;;14.20;99.90;;;;;;5054498;28;20056;-66
2021/11/02 21:04:59;;;;;;;11.15;3.60;;;13.90;99.90;;;;;;5054017;28;20040;-66
2021/11/02 21:08:11;;;;;;;15.98;4.03;;;13.70;99.90;;;;;;5053239;28;20399;-66
2021/11/02 21:11:21;;;;;;;17.17;2.95;;;13.60;99.90;;;;;;5054690;28;20534;-66
2021/11/02 21:14:27;;;;;;;11.90;3.05;;;13.50;99.90;;;;;;5053073;28;20039;-66
2021/11/02 21:17:36;;;;;;;17.05;4.00;;;13.50;99.90;;;;;;5053297;28;20052;-66
2021/11/02 21:20:41;;;;;;;15.45;4.05;;;13.30;99.90;;;;;;5053235;28;20047;-66
2021/11/02 21:23:46;;;;;;;40.33;7.40;;;13.20;99.90;;;;;;5053399;28;20040;-66
2021/11/02 21:26:51;;;;;;;15.63;5.43;;;12.90;99.90;;;;;;5053652;28;20052;-66